createdAt,value
2023-03-20T00:00:54.538Z,8.33
2023-03-20T00:03:57.680Z,9.43
2023-03-20T00:07:00.439Z,8.15
2023-03-20T00:10:05.032Z,8.88
2023-03-20T00:13:12.314Z,8.15
2023-03-20T00:16:15.279Z,8.10
2023-03-20T00:19:19.833Z,8.38
2023-03-20T00:22:23.009Z,9.30
2023-03-20T00:25:28.466Z,8.73
2023-03-20T00:28:38.969Z,8.15
2023-03-20T00:31:41.875Z,7.87
2023-03-20T00:34:44.600Z,9.25
2023-03-20T00:37:47.448Z,7.75
2023-03-20T00:40:52.501Z,8.98
2023-03-20T00:43:59.334Z,8.75
2023-03-20T00:47:04.445Z,9.13
2023-03-20T00:50:09.184Z,8.38
2023-03-20T00:53:13.114Z,8.02
2023-03-20T00:56:34.172Z,7.80
2023-03-20T00:59:41.364Z,8.20
2023-03-20T01:02:44.181Z,8.37
2023-03-20T01:05:47.959Z,9.48
2023-03-20T01:08:53.273Z,8.07
2023-03-20T01:11:57.616Z,7.85
2023-03-20T01:15:01.139Z,8.68
2023-03-20T01:18:03.905Z,7.87
2023-03-20T01:21:07.405Z,7.95
2023-03-20T01:24:10.482Z,7.72
2023-03-20T01:27:16.421Z,8.20
2023-03-20T01:30:23.769Z,9.02
2023-03-20T01:33:27.816Z,8.10
2023-03-20T01:36:30.831Z,8.43
2023-03-20T01:39:36.247Z,8.65
2023-03-20T01:42:40.534Z,8.18
2023-03-20T01:45:53.954Z,8.45
2023-03-20T01:49:00.746Z,7.67
2023-03-20T01:52:03.640Z,7.40
2023-03-20T01:55:06.810Z,8.07
2023-03-20T01:58:17.595Z,7.97
2023-03-20T02:01:20.783Z,8.45
2023-03-20T02:04:27.558Z,8.40
2023-03-20T02:07:32.977Z,8.30
2023-03-20T02:10:36.333Z,10.13
2023-03-20T02:13:41.082Z,8.05
2023-03-20T02:16:44.110Z,8.18
2023-03-20T02:19:57.422Z,8.43
2023-03-20T02:23:39.349Z,7.75
2023-03-20T02:26:53.577Z,8.82
2023-03-20T02:30:31.232Z,7.78
2023-03-20T02:34:22.577Z,8.70
2023-03-20T02:37:57.072Z,8.43
2023-03-20T02:41:04.051Z,8.45
2023-03-20T02:44:11.514Z,8.63
2023-03-20T02:47:18.821Z,7.63
2023-03-20T02:50:32.337Z,8.43
2023-03-20T02:53:43.494Z,8.30
2023-03-20T02:56:57.173Z,9.35
2023-03-20T03:00:09.889Z,8.82
2023-03-20T03:03:18.136Z,8.02
2023-03-20T03:06:26.150Z,8.02
2023-03-20T03:09:33.137Z,8.37
2023-03-20T03:12:39.480Z,7.72
2023-03-20T03:15:46.120Z,8.88
2023-03-20T03:18:54.257Z,9.35
2023-03-20T03:21:57.111Z,9.18
2023-03-20T03:25:01.528Z,7.73
2023-03-20T03:28:08.742Z,8.68
2023-03-20T03:31:16.449Z,9.50
2023-03-20T03:34:22.462Z,8.88
2023-03-20T03:37:38.091Z,9.25
2023-03-20T03:40:45.594Z,8.27
2023-03-20T03:43:55.215Z,9.02
2023-03-20T03:47:03.995Z,9.23
2023-03-20T03:50:11.470Z,11.10
2023-03-20T03:53:16.044Z,10.48
2023-03-20T03:56:24.895Z,9.23
2023-03-20T03:59:32.565Z,8.52
2023-03-20T04:02:36.577Z,9.80
2023-03-20T04:05:43.917Z,9.18
2023-03-20T04:08:46.917Z,9.07
2023-03-20T04:11:53.198Z,8.67
2023-03-20T04:14:55.920Z,9.25
2023-03-20T04:17:58.770Z,10.27
2023-03-20T04:21:01.575Z,9.85
2023-03-20T04:24:04.688Z,9.90
2023-03-20T04:27:08.824Z,11.10
2023-03-20T04:30:12.965Z,9.70
2023-03-20T04:33:16.539Z,9.10
2023-03-20T04:36:19.323Z,10.02
2023-03-20T04:39:22.236Z,11.02
2023-03-20T04:42:26.420Z,9.10
2023-03-20T04:45:29.204Z,8.65
2023-03-20T04:48:31.893Z,8.70
2023-03-20T04:51:34.814Z,10.27
2023-03-20T04:54:37.542Z,9.50
2023-03-20T04:57:42.073Z,10.37
2023-03-20T05:00:45.302Z,9.50
2023-03-20T05:03:48.057Z,10.50
2023-03-20T05:06:50.959Z,8.85
2023-03-20T05:09:53.688Z,10.77
2023-03-20T05:12:57.902Z,10.27
2023-03-20T05:16:01.276Z,10.93
2023-03-20T05:19:03.990Z,10.52
2023-03-20T05:22:06.730Z,10.60
2023-03-20T05:25:10.010Z,10.05
2023-03-20T05:28:14.212Z,9.07
2023-03-20T05:31:16.913Z,9.38
2023-03-20T05:34:19.698Z,9.88
2023-03-20T05:37:22.474Z,10.50
2023-03-20T05:40:25.443Z,11.35
2023-03-20T05:43:30.294Z,10.97
2023-03-20T05:46:33.037Z,10.90
2023-03-20T05:49:36.155Z,12.57
2023-03-20T05:52:38.951Z,11.38
2023-03-20T05:55:44.485Z,13.18
2023-03-20T05:58:48.665Z,14.77
2023-03-20T06:01:51.638Z,16.38
2023-03-20T06:04:54.650Z,15.70
2023-03-20T06:07:57.374Z,15.35
2023-03-20T06:11:00.457Z,19.80
2023-03-20T06:14:04.572Z,18.93
2023-03-20T06:17:07.345Z,21.20
2023-03-20T06:20:11.361Z,22.17
2023-03-20T06:23:14.139Z,29.52
2023-03-20T06:26:16.851Z,30.23
2023-03-20T06:29:21.277Z,30.57
2023-03-20T06:32:24.243Z,32.33
2023-03-20T06:35:31.248Z,29.77
2023-03-20T06:38:33.969Z,34.95
2023-03-20T06:41:37.175Z,30.75
2023-03-20T06:44:41.287Z,35.07
2023-03-20T06:47:44.142Z,30.10
2023-03-20T06:50:47.414Z,32.17
2023-03-20T06:53:50.241Z,31.80
2023-03-20T06:56:53.239Z,27.65
2023-03-20T06:59:57.314Z,31.13
2023-03-20T07:03:02.223Z,32.97
2023-03-20T07:06:06.586Z,30.27
2023-03-20T07:09:09.468Z,32.55
2023-03-20T07:12:14.805Z,30.75
2023-03-20T07:15:19.658Z,31.50
2023-03-20T07:18:22.795Z,31.77
2023-03-20T07:21:26.431Z,27.98
2023-03-20T07:24:29.325Z,28.55
2023-03-20T07:27:32.076Z,32.03
2023-03-20T07:30:36.394Z,28.70
2023-03-20T07:33:39.129Z,28.27
2023-03-20T07:36:42.252Z,28.50
2023-03-20T07:39:46.435Z,25.60
2023-03-20T07:42:49.948Z,23.83
2023-03-20T07:45:54.082Z,28.30
2023-03-20T07:48:58.308Z,23.38
2023-03-20T07:52:02.170Z,25.42
2023-03-20T07:55:05.979Z,26.58
2023-03-20T07:58:08.799Z,26.33
2023-03-20T08:01:13.000Z,27.10
2023-03-20T08:04:19.372Z,24.02
2023-03-20T08:07:22.160Z,28.58
2023-03-20T08:10:25.688Z,27.85
2023-03-20T08:13:28.423Z,26.45
2023-03-20T08:16:32.726Z,25.97
2023-03-20T08:19:36.348Z,25.55
2023-03-20T08:22:39.241Z,28.13
2023-03-20T08:25:42.035Z,23.85
2023-03-20T08:28:47.840Z,26.67
2023-03-20T08:31:52.460Z,25.77
2023-03-20T08:34:56.333Z,25.00
2023-03-20T08:37:59.138Z,25.75
2023-03-20T08:41:01.853Z,24.73
2023-03-20T08:44:04.546Z,23.10
2023-03-20T08:47:10.600Z,24.17
2023-03-20T08:50:13.456Z,22.00
2023-03-20T08:53:16.183Z,23.85
2023-03-20T08:56:19.070Z,22.95
2023-03-20T08:59:21.743Z,19.70
2023-03-20T09:02:26.206Z,19.33
2023-03-20T09:05:29.084Z,20.15
2023-03-20T09:08:32.202Z,18.92
2023-03-20T09:11:35.412Z,19.75
2023-03-20T09:14:38.384Z,19.42
2023-03-20T09:17:42.708Z,19.87
2023-03-20T09:20:45.416Z,17.33
2023-03-20T09:23:48.517Z,17.95
2023-03-20T09:26:52.283Z,20.55
2023-03-20T09:29:55.011Z,17.38
2023-03-20T09:32:59.151Z,15.17
2023-03-20T09:36:01.983Z,14.68
2023-03-20T09:39:05.256Z,15.20
2023-03-20T09:42:23.247Z,14.43
2023-03-20T09:45:41.265Z,14.95
2023-03-20T09:48:55.101Z,15.00
2023-03-20T09:52:00.280Z,12.68
2023-03-20T09:55:08.804Z,11.38
2023-03-20T09:58:16.307Z,14.27
2023-03-20T10:01:23.687Z,14.20
2023-03-20T10:04:31.196Z,13.47
2023-03-20T10:07:33.927Z,13.50
2023-03-20T10:10:47.299Z,13.35
2023-03-20T10:14:02.908Z,15.13
2023-03-20T10:17:21.837Z,13.48
2023-03-20T10:20:31.236Z,13.43
2023-03-20T10:23:37.501Z,12.20
2023-03-20T10:26:41.002Z,11.00
2023-03-20T10:29:52.785Z,12.43
2023-03-20T10:33:09.210Z,11.93
2023-03-20T10:36:29.055Z,11.70
2023-03-20T10:39:50.637Z,11.20
2023-03-20T10:42:57.124Z,10.50
2023-03-20T10:46:03.877Z,10.65
2023-03-20T10:49:14.406Z,10.70
2023-03-20T10:52:21.752Z,9.03
2023-03-20T10:55:29.065Z,10.00
2023-03-20T10:58:35.054Z,10.13
2023-03-20T11:01:37.873Z,12.32
2023-03-20T11:04:40.698Z,11.48
2023-03-20T11:07:46.339Z,9.23
2023-03-20T11:11:00.069Z,9.82
2023-03-20T11:14:16.741Z,9.70
2023-03-20T11:17:19.494Z,10.90
2023-03-20T11:20:22.757Z,9.80
2023-03-20T11:23:30.242Z,10.93
2023-03-20T11:26:37.020Z,12.68
2023-03-20T11:29:42.684Z,10.27
2023-03-20T11:32:49.648Z,12.00
2023-03-20T11:39:24.342Z,9.83
2023-03-20T11:42:29.291Z,11.32
2023-03-20T11:45:36.784Z,13.05
2023-03-20T11:48:41.119Z,11.27
2023-03-20T11:51:44.014Z,12.55
2023-03-20T11:54:51.101Z,12.10
2023-03-20T11:57:58.345Z,11.45
2023-03-20T12:01:03.948Z,11.43
2023-03-20T12:04:11.187Z,125.47
2023-03-20T12:07:17.809Z,36.95
2023-03-20T12:10:23.006Z,204.97
2023-03-20T12:13:29.892Z,142.25
2023-03-20T12:16:36.742Z,115.45
2023-03-20T12:19:41.536Z,33.67
2023-03-20T12:22:52.649Z,27.35
2023-03-20T12:26:01.083Z,15.87
2023-03-20T12:29:07.982Z,18.85
2023-03-20T12:32:18.150Z,14.90
2023-03-20T12:35:27.467Z,14.02
2023-03-20T12:38:32.784Z,12.63
2023-03-20T12:41:47.785Z,13.63
2023-03-20T12:44:54.577Z,13.63
2023-03-20T12:48:17.010Z,12.80
2023-03-20T12:51:29.366Z,13.25
2023-03-20T12:54:43.669Z,14.52
2023-03-20T12:58:08.491Z,12.93
2023-03-20T13:01:18.307Z,14.23
2023-03-20T13:04:45.306Z,12.68
2023-03-20T13:08:01.873Z,12.93
2023-03-20T13:11:13.060Z,16.30
2023-03-20T13:14:25.602Z,13.80
2023-03-20T13:17:35.424Z,13.23
2023-03-20T13:20:47.760Z,13.20
2023-03-20T13:23:59.877Z,15.18
2023-03-20T13:27:12.896Z,16.63
2023-03-20T13:30:26.127Z,13.27
2023-03-20T13:33:43.395Z,16.60
2023-03-20T13:37:12.396Z,16.08
2023-03-20T13:40:27.240Z,13.95
2023-03-20T13:43:34.670Z,15.32
2023-03-20T13:46:43.328Z,14.50
2023-03-20T13:49:54.946Z,12.88
2023-03-20T13:53:04.250Z,16.52
2023-03-20T13:56:16.465Z,16.92
2023-03-20T13:59:41.476Z,15.73
2023-03-20T14:03:06.555Z,18.90
2023-03-20T14:06:42.770Z,15.55
2023-03-20T14:09:46.603Z,15.65
2023-03-20T14:12:50.312Z,17.02
2023-03-20T14:15:56.281Z,15.77
2023-03-20T14:19:18.216Z,18.23
2023-03-20T14:22:23.352Z,17.88
2023-03-20T14:25:28.171Z,15.73
2023-03-20T14:28:34.657Z,15.95
2023-03-20T14:31:38.874Z,18.40
2023-03-20T14:34:49.065Z,15.30
2023-03-20T14:38:09.978Z,15.25
2023-03-20T14:41:17.750Z,15.00
2023-03-20T14:44:31.380Z,15.05
2023-03-20T14:47:45.587Z,21.60
2023-03-20T14:51:03.985Z,13.93
2023-03-20T14:54:28.083Z,13.45
2023-03-20T14:57:48.691Z,13.93
2023-03-20T15:00:55.804Z,13.85
2023-03-20T15:04:02.610Z,17.00
2023-03-20T15:07:14.586Z,16.07
2023-03-20T15:10:19.519Z,15.82
2023-03-20T15:13:24.794Z,12.98
2023-03-20T15:16:30.453Z,15.23
2023-03-20T15:19:33.729Z,14.57
2023-03-20T15:22:48.943Z,15.80
2023-03-20T15:25:51.962Z,14.70
2023-03-20T15:29:01.931Z,15.93
2023-03-20T15:32:14.381Z,13.73
2023-03-20T15:35:20.726Z,13.07
2023-03-20T15:38:31.269Z,13.82
2023-03-20T15:41:35.924Z,14.82
2023-03-20T15:44:40.532Z,58.80
2023-03-20T15:47:44.174Z,25.80
2023-03-20T15:50:49.958Z,19.90
2023-03-20T15:53:54.230Z,143.23
2023-03-20T15:57:00.836Z,163.60
2023-03-20T16:00:05.880Z,359.23
2023-03-20T16:03:12.773Z,360.10
2023-03-20T16:06:20.166Z,207.32
2023-03-20T16:09:25.084Z,75.13
2023-03-20T16:12:28.750Z,46.67
2023-03-20T16:15:33.855Z,36.33
2023-03-20T16:18:39.558Z,35.03
2023-03-20T16:21:47.616Z,21.48
2023-03-20T16:24:55.625Z,42.88
2023-03-20T16:27:59.945Z,49.53
2023-03-20T16:31:10.327Z,32.20
2023-03-20T16:34:19.751Z,71.83
2023-03-20T16:37:27.340Z,45.38
2023-03-20T16:40:34.300Z,23.25
2023-03-20T16:43:39.609Z,19.33
2023-03-20T16:46:58.282Z,17.53
2023-03-20T16:50:22.003Z,14.40
2023-03-20T16:53:24.968Z,15.27
2023-03-20T16:56:34.564Z,12.75
2023-03-20T16:59:40.940Z,13.13
2023-03-20T17:02:46.015Z,12.70
2023-03-20T17:05:56.231Z,13.47
2023-03-20T17:09:03.505Z,12.20
2023-03-20T17:12:16.089Z,13.15
2023-03-20T17:15:20.768Z,12.75
2023-03-20T17:18:23.511Z,16.60
2023-03-20T17:21:26.471Z,18.33
2023-03-20T17:24:29.308Z,12.25
2023-03-20T17:27:34.374Z,16.83
2023-03-20T17:30:37.240Z,22.45
2023-03-20T17:33:40.125Z,22.23
2023-03-20T17:36:43.136Z,19.73
2023-03-20T17:39:45.840Z,18.98
2023-03-20T17:42:50.172Z,17.48
2023-03-20T17:45:53.025Z,15.35
2023-03-20T17:49:00.156Z,14.10
2023-03-20T17:52:02.929Z,14.57
2023-03-20T17:55:06.380Z,11.60
2023-03-20T17:58:17.351Z,14.75
2023-03-20T18:01:20.430Z,13.48
2023-03-20T18:04:24.226Z,12.70
2023-03-20T18:07:27.122Z,13.23
2023-03-20T18:10:32.892Z,11.27
2023-03-20T18:13:37.295Z,11.20
2023-03-20T18:16:40.012Z,12.13
2023-03-20T18:19:43.808Z,13.13
2023-03-20T18:22:46.694Z,13.50
2023-03-20T18:25:49.473Z,14.23
2023-03-20T18:28:55.509Z,12.90
2023-03-20T18:31:58.298Z,14.10
2023-03-20T18:35:01.016Z,15.20
2023-03-20T18:38:04.590Z,12.40
2023-03-20T18:41:08.511Z,14.55
2023-03-20T18:44:13.193Z,14.25
2023-03-20T18:47:15.901Z,12.45
2023-03-20T18:50:27.422Z,12.60
2023-03-20T18:53:32.418Z,12.40
2023-03-20T18:56:36.809Z,12.18
2023-03-20T18:59:41.098Z,13.93
2023-03-20T19:02:43.881Z,14.88
2023-03-20T19:05:46.750Z,12.93
2023-03-20T19:08:51.528Z,12.67
2023-03-20T19:11:54.407Z,14.52
2023-03-20T19:14:58.474Z,12.60
2023-03-20T19:18:01.235Z,13.60
2023-03-20T19:21:04.428Z,15.93
2023-03-20T19:24:08.992Z,14.60
2023-03-20T19:27:17.562Z,15.45
2023-03-20T19:30:33.300Z,13.93
2023-03-20T19:33:36.250Z,14.20
2023-03-20T19:36:39.143Z,12.33
2023-03-20T19:39:41.874Z,14.87
2023-03-20T19:43:01.062Z,13.77
2023-03-20T19:46:09.584Z,14.20
2023-03-20T19:49:19.076Z,13.30
2023-03-20T19:52:30.245Z,13.03
2023-03-20T19:55:33.379Z,13.30
2023-03-20T19:58:36.068Z,12.65
2023-03-20T20:01:40.502Z,12.70
2023-03-20T20:04:43.259Z,12.13
2023-03-20T20:08:17.050Z,10.47
2023-03-20T20:11:11.814Z,14.07
2023-03-20T20:14:15.484Z,13.27
2023-03-20T20:17:19.566Z,11.75
2023-03-20T20:20:25.044Z,17.45
2023-03-20T20:23:29.848Z,13.70
2023-03-20T20:26:38.908Z,12.70
2023-03-20T20:29:44.184Z,13.73
2023-03-20T20:32:48.714Z,15.07
2023-03-20T20:36:26.941Z,15.00
2023-03-20T20:39:14.444Z,14.33
2023-03-20T20:42:18.484Z,14.00
2023-03-20T20:45:22.909Z,14.35
2023-03-20T20:48:27.244Z,14.47
2023-03-20T20:51:31.721Z,15.95
2023-03-20T20:54:35.069Z,14.15
2023-03-20T20:57:38.049Z,13.15
2023-03-20T21:00:51.686Z,15.73
2023-03-20T21:03:58.429Z,15.23
2023-03-20T21:07:09.793Z,14.50
2023-03-20T21:10:16.782Z,13.80
2023-03-20T21:13:19.471Z,14.82
2023-03-20T21:16:23.579Z,14.88
2023-03-20T21:19:28.247Z,15.93
2023-03-20T21:22:31.260Z,15.23
2023-03-20T21:25:45.489Z,14.32
2023-03-20T21:28:49.870Z,16.30
2023-03-20T21:31:52.664Z,15.25
2023-03-20T21:34:57.024Z,14.50
2023-03-20T21:41:23.272Z,15.50
2023-03-20T21:45:04.584Z,14.23
2023-03-20T22:12:14.510Z,15.38
2023-03-20T22:22:26.690Z,15.23
2023-03-20T22:25:50.707Z,15.67
2023-03-20T22:32:49.705Z,14.43
2023-03-20T22:45:38.022Z,14.88
2023-03-20T22:48:46.106Z,12.93
2023-03-20T22:52:07.794Z,11.88
2023-03-20T22:55:11.660Z,13.70
2023-03-20T22:58:17.368Z,12.77
2023-03-20T23:01:20.355Z,12.00
2023-03-20T23:04:23.488Z,12.95
2023-03-20T23:07:26.219Z,13.88
2023-03-20T23:10:29.056Z,13.75
2023-03-20T23:13:33.100Z,14.70
2023-03-20T23:16:36.362Z,16.00
2023-03-20T23:19:47.960Z,14.68
2023-03-20T23:22:53.251Z,12.48
2023-03-20T23:26:03.574Z,13.40
2023-03-20T23:29:07.894Z,12.50
2023-03-20T23:32:10.775Z,12.93
2023-03-20T23:35:13.688Z,13.20
2023-03-20T23:38:16.394Z,12.95
2023-03-20T23:41:19.340Z,11.77
2023-03-20T23:44:23.502Z,11.17
2023-03-20T23:47:30.098Z,13.02
2023-03-20T23:50:51.804Z,11.52
2023-03-20T23:53:55.384Z,12.38
2023-03-20T23:56:58.349Z,11.20
